Time;durP1;ratioP1;P1;durP2;ratioP2;P2;SDS_P1;SDS_P2;PMS_P1;PMS_P2;Temp;Humidity;BMP_temperature;BMP_pressure;BME280_temperature;BME280_humidity;BME280_pressure;Samples;Min_cycle;Max_cycle;Signal;HPM_P1;HPM_P2
2021/12/03 00:05:24;;;;;;;1999.90;999.90;;;;;;;0.37;70.32;100187.91;15600132;28;20065;-61
2021/12/03 00:12:58;;;;;;;1999.90;999.90;;;;;;;0.23;71.06;100188.50;15572727;28;20125;-64
2021/12/03 00:20:34;;;;;;;1999.90;999.90;;;;;;;0.27;70.97;100217.03;15531310;28;20049;-63
2021/12/03 00:28:09;;;;;;;1999.90;999.90;;;;;;;0.19;71.42;100220.31;15547212;28;20100;-63
2021/12/03 00:35:41;;;;;;;1999.90;999.90;;;;;;;0.24;70.76;100222.25;15563736;28;20050;-64
2021/12/03 00:43:15;;;;;;;1999.90;999.90;;;;;;;0.21;70.95;100225.56;15564696;28;20049;-63
2021/12/03 00:50:47;;;;;;;1999.90;999.90;;;;;;;0.32;71.14;100209.91;15550226;28;20053;-65
2021/12/03 00:58:21;;;;;;;1999.90;999.90;;;;;;;0.32;71.43;100215.38;15552288;28;20137;-62
2021/12/03 01:05:54;;;;;;;1999.90;999.90;;;;;;;0.36;70.72;100224.69;15550046;28;20467;-64
2021/12/03 01:13:33;;;;;;;1999.90;999.90;;;;;;;0.58;70.10;100219.69;15588432;28;20129;-61
2021/12/03 01:21:06;;;;;;;1999.90;999.90;;;;;;;0.50;70.70;100217.53;15679850;28;20037;-63
2021/12/03 01:28:41;;;;;;;1999.90;999.90;;;;;;;0.58;69.90;100212.28;15621881;28;20053;-63
2021/12/03 01:36:15;;;;;;;1999.90;999.90;;;;;;;0.50;69.63;100217.53;15594401;28;20513;-63
2021/12/03 01:44:01;;;;;;;1999.90;999.90;;;;;;;0.53;70.03;100222.47;15604325;28;20033;-66
2021/12/03 01:51:37;;;;;;;1999.90;999.90;;;;;;;0.48;70.52;100223.28;15604109;28;20042;-65
2021/12/03 01:59:13;;;;;;;1999.90;999.90;;;;;;;0.50;71.32;100214.78;15620898;28;20060;-66
2021/12/03 02:06:46;;;;;;;1999.90;999.90;;;;;;;0.58;70.51;100222.44;15602134;28;20045;-64
2021/12/03 02:14:23;;;;;;;1999.90;999.90;;;;;;;0.48;71.32;100206.81;15585272;28;20049;-65
2021/12/03 02:21:58;;;;;;;1999.90;999.90;;;;;;;0.42;71.20;100207.13;15619107;28;20045;-64
2021/12/03 02:29:31;;;;;;;1999.90;999.90;;;;;;;0.41;71.32;100209.03;15617779;28;20416;-65
2021/12/03 02:37:06;;;;;;;1999.90;999.90;;;;;;;0.53;71.11;100204.09;15617127;28;20585;-65
2021/12/03 02:44:41;;;;;;;1999.90;999.90;;;;;;;0.47;71.33;100196.94;15599862;28;20045;-66
2021/12/03 02:52:14;;;;;;;1999.90;999.90;;;;;;;0.26;72.08;100200.84;15617149;28;20045;-62
2021/12/03 02:59:50;;;;;;;1999.90;999.90;;;;;;;0.18;72.13;100207.72;15583434;28;20045;-63
2021/12/03 03:07:25;;;;;;;;;;;;;;;0.55;71.12;100206.53;15617388;28;20493;-63
2021/12/03 03:15:00;;;;;;;1999.90;999.90;;;;;;;0.27;71.54;100197.81;15616369;28;19921;-63
2021/12/03 03:22:35;;;;;;;1999.90;999.90;;;;;;;0.37;71.40;100193.41;15616371;28;20060;-64
2021/12/03 03:30:12;;;;;;;1999.90;999.90;;;;;;;0.19;71.81;100203.03;15630530;28;20054;-63
2021/12/03 03:37:46;;;;;;;1999.90;999.90;;;;;;;0.27;71.21;100210.72;15615363;28;20137;-63
2021/12/03 03:45:24;;;;;;;1999.90;999.90;;;;;;;0.38;70.78;100214.25;15604787;28;20088;-64
2021/12/03 03:52:59;;;;;;;1999.90;999.90;;;;;;;0.47;70.27;100229.88;15597767;28;20053;-62
2021/12/03 04:00:34;;;;;;;1999.90;999.90;;;;;;;0.47;70.69;100231.81;15615829;28;20514;-64
2021/12/03 04:08:08;;;;;;;1999.90;999.90;;;;;;;0.44;70.95;100238.69;15615686;28;20072;-64
2021/12/03 04:15:42;;;;;;;1999.90;999.90;;;;;;;0.35;70.82;100234.88;15596901;28;20135;-63
2021/12/03 04:23:19;;;;;;;;;;;;;;;0.45;70.10;100234.84;15614317;28;20046;-64
2021/12/03 04:30:53;;;;;;;1999.90;999.90;;;;;;;0.44;70.41;100243.34;15596520;28;19928;-64
2021/12/03 04:38:27;;;;;;;;;;;;;;;0.51;69.98;100243.88;15614820;28;20068;-62
2021/12/03 04:46:00;;;;;;;1999.90;999.90;;;;;;;0.35;70.24;100248.59;15629285;28;19921;-63
2021/12/03 04:53:34;;;;;;;1999.90;999.90;;;;;;;0.46;70.71;100250.22;15589311;28;20487;-62
2021/12/03 05:01:06;;;;;;;1999.90;999.90;;;;;;;0.52;70.50;100240.88;15529352;28;20136;-64
2021/12/03 05:08:41;;;;;;;1999.90;999.90;;;;;;;0.47;70.59;100243.63;15562810;28;20406;-64
2021/12/03 05:16:13;;;;;;;1999.90;999.90;;;;;;;0.54;69.80;100257.06;15562389;28;20057;-63
2021/12/03 05:23:47;;;;;;;1999.90;999.90;;;;;;;0.62;70.31;100255.66;15544503;28;20054;-62
2021/12/03 05:31:20;;;;;;;1999.90;999.90;;;;;;;0.60;69.73;100258.69;15543636;28;20042;-64
2021/12/03 05:38:54;;;;;;;1999.90;999.90;;;;;;;0.70;69.23;100264.16;15561479;28;20049;-63
2021/12/03 05:46:26;;;;;;;1999.90;999.90;;;;;;;0.68;69.89;100274.59;15576193;28;20085;-63
2021/12/03 05:54:01;;;;;;;;;;;;;;;0.70;69.76;100290.78;15557940;28;20418;-64
2021/12/03 06:01:34;;;;;;;1999.90;999.90;;;;;;;0.75;69.78;100293.53;15627293;28;19921;-61
2021/12/03 06:09:07;;;;;;;1999.90;999.90;;;;;;;0.60;70.59;100312.78;15603349;28;20068;-64
2021/12/03 06:16:40;;;;;;;1999.90;999.90;;;;;;;1.02;69.21;100309.66;15602124;28;20449;-64
2021/12/03 06:24:14;;;;;;;1999.90;999.90;;;;;;;1.07;70.17;100318.72;15585347;28;20038;-63
2021/12/03 06:31:47;;;;;;;1999.90;999.90;;;;;;;1.20;69.91;100306.31;15543692;28;20494;-63
2021/12/03 06:39:21;;;;;;;1999.90;999.90;;;;;;;1.37;69.46;100309.53;15609227;28;20201;-62
2021/12/03 06:46:54;;;;;;;1999.90;999.90;;;;;;;1.34;69.54;100314.75;15578491;28;20050;-64
2021/12/03 06:54:30;;;;;;;1999.90;999.90;;;;;;;1.43;69.72;100326.81;15570972;28;20085;-64
2021/12/03 07:02:03;;;;;;;1999.90;999.90;;;;;;;1.62;68.80;100330.59;15617626;28;20049;-67
2021/12/03 07:09:38;;;;;;;1999.90;999.90;;;;;;;1.58;68.63;100335.03;15618115;28;20453;-64
2021/12/03 07:17:10;;;;;;;1999.90;999.90;;;;;;;1.70;68.25;100345.69;15617063;28;20045;-65
2021/12/03 07:24:44;;;;;;;1999.90;999.90;;;;;;;1.61;68.43;100355.63;15616739;28;20406;-66
2021/12/03 07:32:19;;;;;;;1999.90;999.90;;;;;;;1.83;67.76;100367.06;15615516;28;20053;-65
2021/12/03 07:39:52;;;;;;;1999.90;999.90;;;;;;;1.80;68.25;100373.13;15616787;28;20073;-66
2021/12/03 07:47:25;;;;;;;1999.90;999.90;;;;;;;1.95;68.08;100361.22;15597815;28;20046;-63
2021/12/03 07:54:59;;;;;;;1999.90;999.90;;;;;;;2.24;67.72;100373.13;15597858;28;20335;-63
2021/12/03 08:02:31;;;;;;;1999.90;999.90;;;;;;;2.32;67.28;100377.22;15614856;28;20426;-64
2021/12/03 08:10:07;;;;;;;1999.90;999.90;;;;;;;2.46;66.84;100382.88;15598048;28;20100;-63
2021/12/03 08:17:40;;;;;;;1999.90;999.90;;;;;;;2.62;66.24;100391.88;15597380;28;20518;-64
2021/12/03 08:25:14;;;;;;;1999.90;999.90;;;;;;;2.67;65.63;100386.31;15614522;28;20569;-65
2021/12/03 08:32:48;;;;;;;1999.90;999.90;;;;;;;2.88;65.36;100396.84;15625683;28;20060;-64
2021/12/03 08:40:23;;;;;;;1999.90;999.90;;;;;;;3.25;64.73;100403.69;15626545;28;20454;-65
2021/12/03 08:47:58;;;;;;;1999.90;999.90;;;;;;;3.35;63.79;100402.75;15591392;28;20469;-65
2021/12/03 08:55:32;;;;;;;1999.90;999.90;;;;;;;3.78;62.83;100409.13;15605762;28;20438;-65
2021/12/03 09:03:06;;;;;;;1999.90;999.90;;;;;;;4.45;61.53;100404.31;15596782;28;20077;-64
2021/12/03 09:10:40;;;;;;;1999.90;999.90;;;;;;;4.42;60.81;100399.41;15572838;28;20048;-65
2021/12/03 09:18:22;;;;;;;1999.90;999.90;;;;;;;5.39;58.25;100411.56;15570857;28;20045;-65
2021/12/03 09:26:05;;;;;;;1999.90;999.90;;;;;;;5.74;56.37;100399.78;15590104;28;20069;-65
2021/12/03 09:33:39;;;;;;;1999.90;999.90;;;;;;;6.23;55.67;100403.72;15592985;28;20072;-65
2021/12/03 09:41:16;;;;;;;1999.90;999.90;;;;;;;7.29;53.30;100404.19;15560672;28;20092;-63
2021/12/03 09:56:49;;;;;;;1999.90;999.90;;;;;;;7.38;51.59;100413.38;15532667;28;20092;-63
2021/12/03 10:04:43;;;;;;;1999.90;999.90;;;;;;;7.34;51.14;100406.84;15560588;28;20460;-63
2021/12/03 10:12:31;;;;;;;1999.90;999.90;;;;;;;8.20;49.54;100407.13;15608811;28;20128;-64
2021/12/03 10:20:22;;;;;;;1999.90;999.90;;;;;;;8.78;48.39;100400.31;15621594;28;20421;-64
2021/12/03 10:36:20;;;;;;;1999.90;999.90;;;;;;;8.58;48.15;100410.13;15548940;28;20045;-64
2021/12/03 10:44:07;;;;;;;1999.90;999.90;;;;;;;8.23;49.24;100403.72;15619499;28;20129;-64
2021/12/03 10:51:47;;;;;;;1999.90;999.90;;;;;;;9.15;47.51;100392.38;15617905;28;20045;-66
2021/12/03 12:12:29;;;;;;;1999.90;999.90;;;;;;;7.96;49.60;100390.91;15587816;28;20064;-67
2021/12/03 14:41:45;;;;;;;1999.90;999.90;;;;;;;4.72;61.43;100333.69;15555342;28;20474;-66
2021/12/03 14:49:35;;;;;;;1999.90;999.90;;;;;;;4.28;63.07;100340.50;15599445;28;20034;-66
2021/12/03 14:57:14;;;;;;;1999.90;999.90;;;;;;;4.50;62.97;100332.41;15617399;28;20332;-63
2021/12/03 15:05:07;;;;;;;1999.90;999.90;;;;;;;4.46;63.36;100334.13;15598461;28;20494;-67
2021/12/03 15:29:09;;;;;;;1999.90;999.90;;;;;;;4.39;63.22;100322.66;15605852;28;20060;-64
2021/12/03 15:36:58;;;;;;;1999.90;999.90;;;;;;;4.17;64.26;100297.56;15614610;28;20033;-65
2021/12/03 16:08:10;;;;;;;1999.90;999.90;;;;;;;4.26;63.89;100276.44;15602435;28;20041;-64
2021/12/03 16:16:21;;;;;;;1999.90;999.90;;;;;;;4.29;64.08;100271.16;15614984;28;20045;-68
2021/12/03 16:24:01;;;;;;;1999.90;999.90;;;;;;;4.26;63.79;100268.16;15613484;28;20159;-66
2021/12/03 16:55:07;;;;;;;1999.90;999.90;;;;;;;4.20;64.14;100227.97;15515181;28;20049;-65
2021/12/03 17:02:46;;;;;;;1999.90;999.90;;;;;;;4.14;64.29;100229.97;15563677;28;20446;-64
2021/12/03 17:49:39;;;;;;;1999.90;999.90;;;;;;;4.34;62.37;100234.31;15593740;28;20051;-65
2021/12/03 17:57:18;;;;;;;1999.90;999.90;;;;;;;4.24;62.48;100217.94;15620699;28;20073;-63
2021/12/03 18:05:19;;;;;;;1999.90;999.90;;;;;;;4.37;62.34;100208.03;15589088;28;20049;-63
2021/12/03 18:52:30;;;;;;;1999.90;999.90;;;;;;;3.99;64.53;100104.06;15532386;28;20045;-64
2021/12/03 19:00:08;;;;;;;1999.90;999.90;;;;;;;3.79;65.24;100095.34;15580800;28;20608;-67
2021/12/03 19:07:46;;;;;;;1999.90;999.90;;;;;;;3.92;65.10;100072.44;15618100;28;20045;-64
2021/12/03 19:15:18;;;;;;;1999.90;999.90;;;;;;;4.00;64.61;100052.44;15615502;28;20091;-65
2021/12/03 19:22:52;;;;;;;1999.90;999.90;;;;;;;3.94;64.25;100050.88;15615957;28;20461;-65
2021/12/03 19:30:25;;;;;;;1999.90;999.90;;;;;;;3.78;64.40;100044.84;15599204;28;20049;-66
2021/12/03 19:38:02;;;;;;;1999.90;999.90;;;;;;;3.67;64.36;100049.72;15615698;28;20065;-64
2021/12/03 19:45:42;;;;;;;1999.90;999.90;;;;;;;3.64;64.01;100046.72;15616729;28;20044;-61
2021/12/03 19:53:17;;;;;;;1999.90;999.90;;;;;;;3.67;63.90;100037.88;15593962;28;20033;-64
2021/12/03 20:00:50;;;;;;;1999.90;999.90;;;;;;;3.70;63.28;100040.03;15608943;28;20033;-63
2021/12/03 20:08:25;;;;;;;1999.90;999.90;;;;;;;3.75;63.83;100012.31;15575092;28;20127;-64
2021/12/03 20:16:08;;;;;;;1999.90;999.90;;;;;;;3.76;63.38;100019.50;15555315;28;20045;-64
2021/12/03 20:23:48;;;;;;;1999.90;999.90;;;;;;;3.42;65.75;100006.84;15621672;28;20045;-65
2021/12/03 20:31:23;;;;;;;1999.90;999.90;;;;;;;3.33;67.51;100002.31;15622545;28;20050;-64
2021/12/03 20:39:02;;;;;;;1999.90;999.90;;;;;;;3.21;70.05;100001.97;15549927;28;20487;-64
2021/12/03 20:46:49;;;;;;;1999.90;999.90;;;;;;;2.92;71.58;99986.47;15554773;28;20052;-63
2021/12/03 20:54:28;;;;;;;1999.90;999.90;;;;;;;3.00;71.59;99988.53;15566459;28;20049;-64
2021/12/03 21:10:01;;;;;;;1999.90;999.90;;;;;;;2.96;72.58;99951.69;15580780;28;20049;-65
2021/12/03 21:25:27;;;;;;;1999.90;999.90;;;;;;;3.29;69.57;99919.41;15637173;28;20049;-64
2021/12/03 21:33:14;;;;;;;1999.90;999.90;;;;;;;3.39;68.84;99932.19;15630928;28;20041;-63
2021/12/03 21:48:39;;;;;;;1999.90;999.90;;;;;;;3.68;67.32;99923.63;15623184;28;20071;-64
2021/12/03 21:56:13;;;;;;;1999.90;999.90;;;;;;;3.97;66.77;99913.09;15621929;28;20568;-65
2021/12/03 22:03:46;;;;;;;1999.90;999.90;;;;;;;3.93;65.88;99908.47;15630336;28;20049;-64
2021/12/03 22:11:20;;;;;;;1999.90;999.90;;;;;;;3.96;66.60;99907.84;15525592;28;20049;-62
2021/12/03 22:18:53;;;;;;;1999.90;999.90;;;;;;;3.94;66.70;99905.41;15541621;28;20045;-64
2021/12/03 22:26:27;;;;;;;1999.90;999.90;;;;;;;3.74;68.02;99881.00;15558643;28;20057;-63
2021/12/03 22:34:00;;;;;;;1999.90;999.90;;;;;;;3.67;68.99;99886.13;15558249;28;20650;-63
2021/12/03 22:41:36;;;;;;;1999.90;999.90;;;;;;;3.88;68.31;99881.00;15602416;28;20060;-63
2021/12/03 22:49:30;;;;;;;1999.90;999.90;;;;;;;4.00;67.42;99870.25;15610284;28;20080;-62
2021/12/03 22:57:06;;;;;;;1999.90;999.90;;;;;;;3.85;67.71;99857.56;15603710;28;20128;-67
2021/12/03 23:04:40;;;;;;;1999.90;999.90;;;;;;;4.12;66.87;99842.91;15619383;28;20558;-62
2021/12/03 23:12:13;;;;;;;1999.90;999.90;;;;;;;3.90;69.18;99845.63;15601245;28;20132;-63
2021/12/03 23:19:46;;;;;;;1999.90;999.90;;;;;;;3.72;70.68;99844.63;15599699;28;20081;-66
2021/12/03 23:27:20;;;;;;;1999.90;999.90;;;;;;;3.61;72.77;99846.78;15556627;28;20042;-65
2021/12/03 23:34:53;;;;;;;1999.90;999.90;;;;;;;3.34;74.71;99842.09;15555950;22;20053;-57
2021/12/03 23:42:27;;;;;;;1999.90;999.90;;;;;;;3.19;76.52;99845.13;15609137;28;20050;-58
2021/12/03 23:49:59;;;;;;;1999.90;999.90;;;;;;;3.23;76.64;99837.06;15605927;28;20502;-59
2021/12/03 23:57:33;;;;;;;1999.90;999.90;;;;;;;3.20;77.20;99827.47;15608446;28;20527;-56
